createdAt,value
2024-05-09T00:02:49.804Z,100658.13
2024-05-09T00:05:52.027Z,100647.72
2024-05-09T00:08:54.072Z,100668.88
2024-05-09T00:11:56.731Z,100601.34
2024-05-09T00:14:58.801Z,100665.38
2024-05-09T00:18:01.120Z,100664.84
2024-05-09T00:21:06.333Z,100567.91
2024-05-09T00:24:08.426Z,100664.25
2024-05-09T00:27:12.667Z,100661.75
2024-05-09T00:30:24.141Z,100668.84
2024-05-09T00:33:33.739Z,100649.81
2024-05-09T00:36:35.856Z,100665.38
2024-05-09T00:39:37.939Z,100647.91
2024-05-09T00:42:41.233Z,100661.97
2024-05-09T00:45:43.878Z,100645.00
2024-05-09T00:48:47.034Z,100642.56
2024-05-09T00:51:50.217Z,100650.41
2024-05-09T00:54:52.444Z,100657.22
2024-05-09T00:57:55.072Z,100645.97
2024-05-09T01:01:00.322Z,100659.88
2024-05-09T01:04:03.041Z,100659.09
2024-05-09T01:07:05.281Z,100663.56
2024-05-09T01:10:13.951Z,100655.97
2024-05-09T01:13:19.606Z,100661.28
2024-05-09T01:16:21.651Z,100662.00
2024-05-09T01:19:28.368Z,100653.31
2024-05-09T01:22:35.931Z,100638.16
2024-05-09T01:25:38.266Z,100657.16
2024-05-09T01:28:40.301Z,100667.72
2024-05-09T01:36:37.776Z,100673.09
2024-05-09T01:39:39.945Z,100663.66
2024-05-09T01:42:42.125Z,100663.91
2024-05-09T01:45:44.108Z,100672.56
2024-05-09T01:48:46.928Z,100677.69
2024-05-09T01:51:49.150Z,100657.72
2024-05-09T01:54:51.235Z,100676.13
2024-05-09T01:57:53.304Z,100671.00
2024-05-09T02:00:55.505Z,100671.09
2024-05-09T02:03:57.701Z,100672.97
2024-05-09T02:06:59.924Z,100684.63
2024-05-09T02:10:02.104Z,100662.88
2024-05-09T02:13:07.999Z,100671.59
2024-05-09T02:16:13.190Z,100622.91
2024-05-09T02:19:15.418Z,100673.38
2024-05-09T02:22:17.561Z,100667.44
2024-05-09T02:25:22.120Z,100662.19
2024-05-09T02:28:24.116Z,100539.19
2024-05-09T02:31:26.197Z,100622.47
2024-05-09T02:34:28.482Z,100676.38
2024-05-09T02:37:30.586Z,100621.66
2024-05-09T02:40:37.654Z,100674.59
2024-05-09T02:43:41.319Z,100660.59
2024-05-09T02:46:43.405Z,100677.13
2024-05-09T02:49:45.739Z,100575.22
2024-05-09T02:52:47.878Z,100673.88
2024-05-09T02:55:50.196Z,100585.34
2024-05-09T02:58:52.344Z,100682.38
2024-05-09T03:01:54.501Z,100677.22
2024-05-09T03:04:56.692Z,100665.94
2024-05-09T03:07:58.930Z,100688.53
2024-05-09T03:11:00.976Z,100666.63
2024-05-09T03:14:03.330Z,100677.03
2024-05-09T03:17:05.497Z,100681.44
2024-05-09T03:20:16.878Z,100681.34
2024-05-09T03:23:22.562Z,100682.16
2024-05-09T03:26:24.868Z,100602.13
2024-05-09T03:29:27.036Z,100598.72
2024-05-09T03:32:29.314Z,100644.59
2024-05-09T03:35:31.581Z,100637.63
2024-05-09T03:38:40.052Z,100684.66
2024-05-09T03:41:42.130Z,100683.78
2024-05-09T03:44:44.227Z,100688.06
2024-05-09T03:47:46.545Z,100628.03
2024-05-09T03:50:49.012Z,100665.94
2024-05-09T03:53:51.117Z,100672.84
2024-05-09T03:56:54.463Z,100674.53
2024-05-09T03:59:56.457Z,100677.22
2024-05-09T04:02:59.716Z,100683.66
2024-05-09T04:06:01.997Z,100683.78
2024-05-09T04:09:05.314Z,100682.16
2024-05-09T04:12:08.185Z,100668.72
2024-05-09T04:15:13.517Z,100683.28
2024-05-09T04:18:18.749Z,100679.38
2024-05-09T04:21:20.854Z,100669.69
2024-05-09T04:24:22.877Z,100672.94
2024-05-09T04:27:24.902Z,100689.56
2024-05-09T04:30:36.069Z,100672.75
2024-05-09T04:33:41.474Z,100687.34
2024-05-09T04:36:44.629Z,100708.16
2024-05-09T04:39:46.812Z,100695.63
2024-05-09T04:42:48.856Z,100703.28
2024-05-09T04:45:50.947Z,100702.16
2024-05-09T04:48:53.897Z,100689.69
2024-05-09T04:51:56.050Z,100698.25
2024-05-09T04:54:59.026Z,100693.84
2024-05-09T04:58:01.932Z,100693.81
2024-05-09T05:01:04.182Z,100707.44
2024-05-09T05:04:06.393Z,100701.03
2024-05-09T05:07:08.512Z,100703.97
2024-05-09T05:10:15.025Z,100713.69
2024-05-09T05:13:24.356Z,100716.94
2024-05-09T05:16:27.044Z,100683.16
2024-05-09T05:19:29.179Z,100714.59
2024-05-09T05:22:31.391Z,100717.59
2024-05-09T05:25:33.488Z,100712.28
2024-05-09T05:28:35.601Z,100733.00
2024-05-09T05:31:37.700Z,100725.84
2024-05-09T05:34:39.874Z,100724.50
2024-05-09T05:37:42.102Z,100722.97
2024-05-09T05:40:44.364Z,100720.03
2024-05-09T05:43:46.385Z,100730.25
2024-05-09T05:46:48.576Z,100716.69
2024-05-09T05:49:50.702Z,100677.34
2024-05-09T05:52:52.738Z,100726.81
2024-05-09T05:55:54.763Z,100725.91
2024-05-09T05:58:56.968Z,100728.06
2024-05-09T06:01:59.053Z,100695.00
2024-05-09T06:05:01.373Z,100725.91
2024-05-09T06:08:03.662Z,100735.66
2024-05-09T06:11:05.765Z,100729.59
2024-05-09T06:14:09.315Z,100715.00
2024-05-09T06:17:11.551Z,100709.63
2024-05-09T06:20:20.753Z,100720.53
2024-05-09T06:23:29.397Z,100734.59
2024-05-09T06:26:32.215Z,100726.66
2024-05-09T06:29:38.515Z,100693.44
2024-05-09T06:32:43.620Z,100723.56
2024-05-09T06:35:47.036Z,100718.59
2024-05-09T06:38:49.208Z,100727.72
2024-05-09T06:41:51.671Z,100737.94
2024-05-09T06:44:53.693Z,100738.28
2024-05-09T06:47:55.925Z,100728.69
2024-05-09T06:50:58.407Z,100708.53
2024-05-09T06:54:00.467Z,100737.31
2024-05-09T06:57:02.525Z,100735.72
2024-05-09T07:03:15.389Z,100744.22
2024-05-09T07:06:19.363Z,100747.66
2024-05-09T07:09:21.408Z,100742.78
2024-05-09T07:12:24.867Z,100737.16
2024-05-09T07:15:27.002Z,100744.69
2024-05-09T07:18:29.097Z,100740.63
2024-05-09T07:21:32.500Z,100734.72
2024-05-09T07:24:37.167Z,100717.22
2024-05-09T07:27:39.136Z,100747.72
2024-05-09T07:30:41.861Z,100729.00
2024-05-09T07:33:44.001Z,100748.66
2024-05-09T07:36:46.493Z,100745.59
2024-05-09T07:39:48.743Z,100755.16
2024-05-09T07:42:50.882Z,100744.97
2024-05-09T07:45:55.154Z,100745.63
2024-05-09T07:50:35.765Z,100752.78
2024-05-09T07:53:30.346Z,100765.06
2024-05-09T07:55:43.218Z,100725.19
2024-05-09T07:58:45.689Z,100756.16
2024-05-09T08:01:47.811Z,100765.97
2024-05-09T08:04:50.064Z,100759.69
2024-05-09T08:07:52.291Z,100765.66
2024-05-09T08:10:54.552Z,100756.41
2024-05-09T08:13:56.513Z,100763.63
2024-05-09T08:16:58.732Z,100744.38
2024-05-09T08:20:01.974Z,100759.03
2024-05-09T08:23:05.298Z,100759.94
2024-05-09T08:26:07.628Z,100754.34
2024-05-09T08:29:10.370Z,100758.53
2024-05-09T08:32:13.857Z,100756.91
2024-05-09T08:35:16.019Z,100759.09
2024-05-09T08:38:18.020Z,100759.50
2024-05-09T08:41:20.053Z,100733.97
2024-05-09T08:44:23.503Z,100754.75
2024-05-09T08:47:28.735Z,100764.75
2024-05-09T08:50:37.894Z,100751.16
2024-05-09T08:53:41.821Z,100762.38
2024-05-09T08:56:48.248Z,100763.06
2024-05-09T08:59:52.802Z,100750.56
2024-05-09T09:02:56.386Z,100749.69
2024-05-09T09:06:01.487Z,100743.97
2024-05-09T09:09:03.875Z,100748.81
2024-05-09T09:12:08.582Z,100703.31
2024-05-09T09:15:12.591Z,100752.69
2024-05-09T09:18:16.275Z,100746.81
2024-05-09T09:21:18.461Z,100737.66
2024-05-09T09:24:20.422Z,100720.91
2024-05-09T09:27:22.795Z,100734.66
2024-05-09T09:30:34.760Z,100741.00
2024-05-09T09:33:43.242Z,100736.75
2024-05-09T09:36:46.563Z,100727.66
2024-05-09T09:39:49.666Z,100740.97
2024-05-09T09:42:57.765Z,100685.41
2024-05-09T09:46:02.137Z,100733.22
2024-05-09T09:49:04.572Z,100734.66
2024-05-09T09:52:09.850Z,100738.94
2024-05-09T09:55:13.674Z,100725.31
2024-05-09T09:58:18.224Z,100736.44
2024-05-09T10:01:20.462Z,100725.56
2024-05-09T10:04:23.786Z,100735.66
2024-05-09T10:07:27.788Z,100681.19
2024-05-09T10:10:33.463Z,100722.19
2024-05-09T10:13:36.106Z,100729.31
2024-05-09T10:16:44.750Z,100714.44
2024-05-09T10:19:47.693Z,100717.50
2024-05-09T10:22:50.668Z,100722.41
2024-05-09T10:26:04.042Z,100706.59
2024-05-09T10:29:16.697Z,100719.34
2024-05-09T10:32:19.094Z,100703.34
2024-05-09T10:35:23.047Z,100704.78
2024-05-09T10:38:25.342Z,100704.28
2024-05-09T10:41:27.419Z,100698.19
2024-05-09T10:44:29.797Z,100691.09
2024-05-09T10:47:32.121Z,100688.88
2024-05-09T10:50:34.766Z,100662.94
2024-05-09T10:53:43.973Z,100684.72
2024-05-09T10:56:45.984Z,100674.06
2024-05-09T10:59:50.358Z,100690.63
2024-05-09T11:02:52.805Z,100667.50
2024-05-09T11:05:55.663Z,100681.91
2024-05-09T11:08:58.117Z,100677.34
2024-05-09T11:12:00.683Z,100669.25
2024-05-09T11:15:02.901Z,100677.03
2024-05-09T11:18:05.451Z,100678.25
2024-05-09T11:21:14.222Z,100677.16
2024-05-09T11:24:16.834Z,100662.56
2024-05-09T11:27:21.072Z,100584.81
2024-05-09T11:30:30.045Z,100627.75
2024-05-09T11:33:40.312Z,100661.16
2024-05-09T11:36:42.689Z,100659.09
2024-05-09T11:39:44.813Z,100634.03
2024-05-09T11:42:48.765Z,100646.31
2024-05-09T11:45:52.912Z,100634.94
2024-05-09T11:48:55.338Z,100649.13
2024-05-09T11:51:57.440Z,100645.50
2024-05-09T11:54:59.549Z,100651.75
2024-05-09T11:58:02.443Z,100644.41
2024-05-09T12:01:04.762Z,100650.09
2024-05-09T12:04:08.788Z,100640.41
2024-05-09T12:07:13.028Z,100646.91
2024-05-09T12:10:19.653Z,100637.22
2024-05-09T12:13:24.716Z,100627.91
2024-05-09T12:16:26.825Z,100628.53
2024-05-09T12:19:28.967Z,100596.06
2024-05-09T12:22:31.020Z,100621.88
2024-05-09T12:25:33.262Z,100615.91
2024-05-09T12:28:35.387Z,100617.13
2024-05-09T12:31:37.530Z,100604.53
2024-05-09T12:34:39.698Z,100614.81
2024-05-09T12:37:41.771Z,100618.16
2024-05-09T12:40:43.900Z,100600.19
2024-05-09T12:43:46.085Z,100605.44
2024-05-09T12:46:48.540Z,100610.47
2024-05-09T12:49:50.600Z,100614.44
2024-05-09T12:52:52.573Z,100610.03
2024-05-09T12:55:59.909Z,100614.34
2024-05-09T12:59:04.821Z,100609.06
2024-05-09T13:02:06.998Z,100599.16
2024-05-09T13:05:10.097Z,100581.31
2024-05-09T13:08:12.914Z,100568.97
2024-05-09T13:11:15.131Z,100596.31
2024-05-09T13:14:17.232Z,100597.25
2024-05-09T13:17:19.473Z,100590.00
2024-05-09T13:20:29.262Z,100596.91
2024-05-09T13:23:37.050Z,100546.53
2024-05-09T13:26:39.156Z,100567.19
2024-05-09T13:29:42.793Z,100579.75
2024-05-09T13:32:46.295Z,100585.34
2024-05-09T13:35:50.647Z,100564.88
2024-05-09T13:38:53.322Z,100530.19
2024-05-09T13:41:55.364Z,100576.69
2024-05-09T13:44:57.416Z,100566.78
2024-05-09T13:47:59.877Z,100561.03
2024-05-09T13:51:02.216Z,100558.69
2024-05-09T13:54:04.351Z,100567.16
2024-05-09T13:57:06.659Z,100566.28
2024-05-09T14:00:22.269Z,100545.69
2024-05-09T14:03:31.142Z,100561.81
2024-05-09T14:06:33.443Z,100559.13
2024-05-09T14:09:35.820Z,100555.91
2024-05-09T14:12:37.826Z,100556.09
2024-05-09T14:15:40.050Z,100556.47
2024-05-09T14:18:42.248Z,100563.94
2024-05-09T14:21:44.478Z,100516.41
2024-05-09T14:24:46.525Z,100572.56
2024-05-09T14:27:48.668Z,100544.72
2024-05-09T14:30:51.170Z,100552.66
2024-05-09T14:33:53.610Z,100539.94
2024-05-09T14:36:55.813Z,100557.66
2024-05-09T14:39:58.357Z,100551.91
2024-05-09T14:43:03.224Z,100539.16
2024-05-09T14:46:05.517Z,100534.66
2024-05-09T14:49:09.876Z,100570.72
2024-05-09T14:52:13.910Z,100556.19
2024-05-09T14:55:16.065Z,100553.59
2024-05-09T14:58:19.239Z,100482.44
2024-05-09T15:01:24.241Z,100554.47
2024-05-09T15:04:27.088Z,100553.88
2024-05-09T15:07:29.326Z,100554.94
2024-05-09T15:10:35.232Z,100541.72
2024-05-09T15:13:38.719Z,100553.69
2024-05-09T15:16:40.818Z,100547.19
2024-05-09T15:19:45.472Z,100533.50
2024-05-09T15:22:47.631Z,100546.09
2024-05-09T15:25:49.702Z,100540.09
2024-05-09T15:28:51.854Z,100546.31
2024-05-09T15:31:53.891Z,100548.16
2024-05-09T15:34:56.430Z,100548.03
2024-05-09T15:37:58.521Z,100535.34
2024-05-09T15:41:00.586Z,100540.34
2024-05-09T15:44:02.644Z,100539.69
2024-05-09T15:47:05.092Z,100541.44
2024-05-09T15:50:14.744Z,100533.72
2024-05-09T15:53:22.707Z,100544.72
2024-05-09T15:56:24.844Z,100559.00
2024-05-09T15:59:27.018Z,100543.50
2024-05-09T16:02:29.247Z,100543.16
2024-05-09T16:05:31.636Z,100545.81
2024-05-09T16:08:33.758Z,100547.00
2024-05-09T16:11:37.411Z,100557.72
2024-05-09T16:14:39.516Z,100564.09
2024-05-09T16:17:41.626Z,100521.53
2024-05-09T16:20:45.444Z,100554.13
2024-05-09T16:23:49.354Z,100550.53
2024-05-09T16:26:51.323Z,100564.75
2024-05-09T16:29:53.461Z,100518.59
2024-05-09T16:32:56.005Z,100563.81
2024-05-09T16:35:58.486Z,100569.72
2024-05-09T16:39:00.592Z,100515.78
2024-05-09T16:42:02.589Z,100574.94
2024-05-09T16:45:05.096Z,100562.50
2024-05-09T16:48:08.385Z,100571.81
2024-05-09T16:51:10.592Z,100578.84
2024-05-09T16:54:12.700Z,100576.00
2024-05-09T16:57:14.646Z,100573.50
2024-05-09T17:00:25.551Z,100590.47
2024-05-09T17:03:34.373Z,100550.22
2024-05-09T17:06:36.722Z,100585.69
2024-05-09T17:09:39.363Z,100583.22
2024-05-09T17:12:41.703Z,100578.28
2024-05-09T17:15:44.000Z,100566.44
2024-05-09T17:18:48.646Z,100546.72
2024-05-09T17:21:50.754Z,100584.03
2024-05-09T17:24:52.973Z,100592.47
2024-05-09T17:27:55.371Z,100600.16
2024-05-09T17:30:57.838Z,100582.06
2024-05-09T17:34:00.560Z,100578.75
2024-05-09T17:37:02.793Z,100557.81
2024-05-09T17:40:09.127Z,100593.69
2024-05-09T17:43:16.248Z,100586.84
2024-05-09T17:46:18.473Z,100581.63
2024-05-09T17:49:20.735Z,100599.78
2024-05-09T17:52:22.921Z,100597.47
2024-05-09T17:55:25.265Z,100589.25
2024-05-09T17:58:27.765Z,100603.47
2024-05-09T18:01:29.924Z,100601.06
2024-05-09T18:04:33.627Z,100600.78
2024-05-09T18:07:36.087Z,100565.63
2024-05-09T18:10:40.584Z,100611.41
2024-05-09T18:13:45.245Z,100610.19
2024-05-09T18:16:47.353Z,100577.28
2024-05-09T18:19:49.513Z,100629.09
2024-05-09T18:22:51.569Z,100618.56
2024-05-09T18:25:55.138Z,100588.34
2024-05-09T18:28:57.547Z,100641.59
2024-05-09T18:31:59.490Z,100634.81
2024-05-09T18:35:01.728Z,100599.19
2024-05-09T18:38:04.973Z,100637.56
2024-05-09T18:41:07.540Z,100651.09
2024-05-09T18:44:09.704Z,100631.66
2024-05-09T18:47:11.825Z,100670.97
2024-05-09T18:50:20.562Z,100659.31
2024-05-09T18:53:29.932Z,100675.66
2024-05-09T18:56:32.010Z,100676.34
2024-05-09T18:59:34.023Z,100674.06
2024-05-09T19:02:36.183Z,100672.91
2024-05-09T19:05:39.038Z,100678.38
2024-05-09T19:08:41.465Z,100678.94
2024-05-09T19:11:43.687Z,100688.34
2024-05-09T19:14:45.727Z,100691.88
2024-05-09T19:17:48.375Z,100656.66
2024-05-09T19:20:50.565Z,100688.75
2024-05-09T19:23:52.739Z,100696.81
2024-05-09T19:26:56.304Z,100648.97
2024-05-09T19:29:58.323Z,100701.81
2024-05-09T19:33:00.484Z,100701.28
2024-05-09T19:36:03.141Z,100696.44
2024-05-09T19:39:05.720Z,100719.28
2024-05-09T19:42:07.934Z,100710.25
2024-05-09T19:45:10.005Z,100714.03
2024-05-09T19:48:12.509Z,100685.28
2024-05-09T19:51:14.770Z,100734.97
2024-05-09T19:54:16.903Z,100734.09
2024-05-09T19:57:19.661Z,100722.38
2024-05-09T20:00:29.167Z,100743.66
2024-05-09T20:03:37.452Z,100746.13
2024-05-09T20:06:41.430Z,100743.97
2024-05-09T20:09:43.586Z,100757.72
2024-05-09T20:12:45.651Z,100751.19
2024-05-09T20:15:48.019Z,100756.13
2024-05-09T20:18:50.270Z,100760.72
2024-05-09T20:21:52.539Z,100765.44
2024-05-09T20:24:54.550Z,100766.00
2024-05-09T20:27:56.916Z,100767.84
2024-05-09T20:30:59.014Z,100774.91
2024-05-09T20:34:01.101Z,100769.72
2024-05-09T20:37:03.232Z,100770.13
2024-05-09T20:40:09.971Z,100761.44
2024-05-09T20:43:17.489Z,100775.44
2024-05-09T20:46:19.930Z,100775.66
2024-05-09T20:49:23.700Z,100771.41
2024-05-09T20:52:25.838Z,100792.34
2024-05-09T20:55:29.593Z,100794.00
2024-05-09T20:58:31.937Z,100791.63
2024-05-09T21:01:34.073Z,100790.78
2024-05-09T21:04:36.370Z,100747.88
2024-05-09T21:07:38.568Z,100795.69
2024-05-09T21:10:40.708Z,100805.66
2024-05-09T21:13:42.861Z,100811.91
2024-05-09T21:16:45.045Z,100802.03
2024-05-09T21:19:47.036Z,100812.91
2024-05-09T21:22:49.303Z,100827.22
2024-05-09T21:25:51.261Z,100814.50
2024-05-09T21:28:53.274Z,100830.25
2024-05-09T21:31:55.265Z,100834.81
2024-05-09T21:34:57.423Z,100826.44
2024-05-09T21:37:59.390Z,100841.22
2024-05-09T21:41:01.386Z,100841.28
2024-05-09T21:44:03.459Z,100825.59
2024-05-09T21:47:05.563Z,100830.78
2024-05-09T21:50:08.106Z,100841.16
2024-05-09T21:53:11.761Z,100839.44
2024-05-09T21:56:14.190Z,100795.28
2024-05-09T21:59:16.186Z,100794.41
2024-05-09T22:02:18.218Z,100790.97
2024-05-09T22:05:20.338Z,100852.53
2024-05-09T22:08:22.406Z,100861.41
2024-05-09T22:11:24.511Z,100858.88
2024-05-09T22:14:26.575Z,100856.09
2024-05-09T22:17:28.767Z,100819.56
2024-05-09T22:20:36.847Z,100865.53
2024-05-09T22:23:41.219Z,100877.81
2024-05-09T22:26:43.160Z,100869.00
2024-05-09T22:29:45.236Z,100849.16
2024-05-09T22:32:47.373Z,100868.28
2024-05-09T22:35:51.312Z,100881.31
2024-05-09T22:38:53.352Z,100870.94
2024-05-09T22:41:55.305Z,100878.78
2024-05-09T22:44:57.270Z,100819.78
2024-05-09T22:47:59.712Z,100865.22
2024-05-09T22:51:01.900Z,100874.88
2024-05-09T22:54:04.961Z,100873.00
2024-05-09T22:57:07.062Z,100873.22
2024-05-09T23:00:12.417Z,100833.34
2024-05-09T23:03:18.802Z,100855.03
2024-05-09T23:06:21.003Z,100856.06
2024-05-09T23:09:23.073Z,100871.03
2024-05-09T23:12:25.155Z,100860.56
2024-05-09T23:15:27.229Z,100869.22
2024-05-09T23:18:29.656Z,100864.94
2024-05-09T23:21:32.101Z,100864.88
2024-05-09T23:24:35.448Z,100863.03
2024-05-09T23:27:37.525Z,100838.31
2024-05-09T23:30:41.143Z,100879.38
2024-05-09T23:33:47.495Z,100881.09
2024-05-09T23:36:49.822Z,100889.09
2024-05-09T23:39:51.795Z,100873.97
2024-05-09T23:42:53.904Z,100831.38
2024-05-09T23:45:55.950Z,100880.84
2024-05-09T23:48:58.137Z,100883.47
2024-05-09T23:52:00.319Z,100879.28
2024-05-09T23:55:02.559Z,100886.28
2024-05-09T23:58:04.984Z,100843.81
